createdAt,value
2023-12-08T00:02:21.114Z,1.14
2023-12-08T00:04:52.101Z,1.14
2023-12-08T00:07:23.041Z,1.12
2023-12-08T00:09:53.964Z,1.06
2023-12-08T00:12:24.689Z,1.04
2023-12-08T00:14:55.735Z,1.04
2023-12-08T00:17:29.252Z,1.00
2023-12-08T00:20:00.139Z,1.01
2023-12-08T00:22:31.251Z,1.03
2023-12-08T00:25:02.166Z,1.06
2023-12-08T00:27:33.105Z,1.05
2023-12-08T00:30:03.930Z,1.11
2023-12-08T00:32:37.793Z,1.16
2023-12-08T00:35:10.300Z,1.18
2023-12-08T00:37:41.106Z,1.22
2023-12-08T00:40:13.190Z,1.30
2023-12-08T00:42:44.036Z,1.32
2023-12-08T00:45:15.223Z,1.31
2023-12-08T00:47:48.981Z,1.27
2023-12-08T00:50:20.561Z,1.30
2023-12-08T00:52:51.295Z,1.21
2023-12-08T00:55:22.002Z,1.20
2023-12-08T00:57:53.200Z,1.21
2023-12-08T01:00:24.181Z,1.21
2023-12-08T01:02:57.845Z,1.24
2023-12-08T01:05:28.488Z,1.24
2023-12-08T01:07:59.278Z,1.24
2023-12-08T01:10:30.103Z,1.30
2023-12-08T01:13:00.827Z,1.34
2023-12-08T01:15:31.660Z,1.33
2023-12-08T01:18:05.374Z,1.23
2023-12-08T01:20:37.739Z,1.21
2023-12-08T01:23:08.396Z,1.21
2023-12-08T01:25:39.165Z,1.27
2023-12-08T01:28:09.808Z,1.25
2023-12-08T01:30:40.415Z,1.23
2023-12-08T01:33:13.786Z,1.18
2023-12-08T01:35:44.614Z,1.13
2023-12-08T01:38:15.555Z,1.16
2023-12-08T01:40:46.493Z,1.12
2023-12-08T01:43:17.414Z,1.14
2023-12-08T01:45:48.165Z,1.13
2023-12-08T01:48:21.785Z,1.18
2023-12-08T01:50:53.058Z,1.23
2023-12-08T01:53:23.803Z,1.25
2023-12-08T01:55:54.788Z,1.13
2023-12-08T01:58:26.131Z,1.11
2023-12-08T02:00:57.097Z,1.10
2023-12-08T02:03:32.554Z,1.18
2023-12-08T02:06:04.445Z,1.19
2023-12-08T02:08:36.986Z,1.16
2023-12-08T02:11:08.691Z,1.15
2023-12-08T02:13:39.955Z,1.21
2023-12-08T02:16:14.302Z,1.28
2023-12-08T02:18:49.059Z,1.30
2023-12-08T02:21:20.315Z,1.38
2023-12-08T02:23:54.375Z,1.38
2023-12-08T02:26:25.199Z,1.33
2023-12-08T02:28:56.494Z,1.23
2023-12-08T02:31:31.293Z,1.28
2023-12-08T02:34:03.676Z,1.27
2023-12-08T02:36:35.424Z,1.35
2023-12-08T02:39:12.422Z,1.36
2023-12-08T02:41:43.222Z,1.35
2023-12-08T02:44:14.037Z,1.40
2023-12-08T02:46:45.139Z,1.35
2023-12-08T02:49:16.082Z,1.36
2023-12-08T02:51:46.759Z,1.43
2023-12-08T02:54:20.215Z,1.44
2023-12-08T02:56:50.972Z,1.39
2023-12-08T02:59:21.852Z,1.41
2023-12-08T03:01:52.833Z,1.45
2023-12-08T03:04:23.984Z,1.33
2023-12-08T03:06:54.859Z,1.35
2023-12-08T03:09:28.357Z,1.36
2023-12-08T03:11:59.709Z,1.36
2023-12-08T03:14:30.571Z,1.41
2023-12-08T03:17:01.547Z,1.40
2023-12-08T03:19:32.378Z,1.42
2023-12-08T03:22:03.208Z,1.45
2023-12-08T03:24:36.840Z,1.50
2023-12-08T03:27:08.441Z,1.48
2023-12-08T03:29:43.584Z,1.56
2023-12-08T03:32:14.603Z,1.56
2023-12-08T03:34:45.563Z,1.60
2023-12-08T03:37:16.615Z,1.51
2023-12-08T03:39:51.326Z,1.50
2023-12-08T03:42:22.118Z,1.56
2023-12-08T03:44:53.007Z,1.53
2023-12-08T03:47:24.361Z,1.49
2023-12-08T03:49:55.397Z,1.50
2023-12-08T03:52:26.274Z,1.59
2023-12-08T03:54:59.959Z,1.60
2023-12-08T03:57:30.818Z,1.60
2023-12-08T04:00:01.928Z,1.61
2023-12-08T04:02:35.802Z,1.55
2023-12-08T04:05:06.943Z,1.52
2023-12-08T04:07:38.050Z,1.52
2023-12-08T04:10:12.928Z,1.53
2023-12-08T04:12:43.582Z,1.51
2023-12-08T04:15:15.612Z,1.52
2023-12-08T04:17:46.644Z,1.46
2023-12-08T04:20:18.205Z,1.38
2023-12-08T04:22:49.145Z,1.32
2023-12-08T04:25:22.942Z,1.26
2023-12-08T04:27:53.977Z,1.23
2023-12-08T04:30:25.083Z,1.32
2023-12-08T04:32:56.169Z,1.36
2023-12-08T04:35:27.556Z,1.37
2023-12-08T04:37:58.417Z,1.38
2023-12-08T04:40:31.951Z,1.41
2023-12-08T04:43:03.016Z,1.47
2023-12-08T04:45:33.697Z,1.38
2023-12-08T04:48:04.797Z,1.45
2023-12-08T04:50:35.646Z,1.50
2023-12-08T04:53:06.611Z,1.47
2023-12-08T04:55:40.085Z,1.43
2023-12-08T04:58:10.762Z,1.34
2023-12-08T05:00:41.516Z,1.37
2023-12-08T05:03:12.440Z,1.36
2023-12-08T05:05:43.316Z,1.43
2023-12-08T05:08:14.330Z,1.40
2023-12-08T05:10:47.898Z,1.41
2023-12-08T05:13:18.841Z,1.34
2023-12-08T05:15:49.580Z,1.29
2023-12-08T05:18:20.514Z,1.29
2023-12-08T05:20:51.712Z,1.32
2023-12-08T05:23:22.538Z,1.40
2023-12-08T05:25:56.090Z,1.43
2023-12-08T05:28:26.732Z,1.50
2023-12-08T05:30:57.738Z,1.55
2023-12-08T05:33:28.653Z,1.54
2023-12-08T05:36:00.012Z,1.45
2023-12-08T05:38:31.859Z,1.47
2023-12-08T05:41:05.293Z,1.43
2023-12-08T05:43:36.654Z,1.45
2023-12-08T05:46:07.261Z,1.40
2023-12-08T05:48:38.279Z,1.46
2023-12-08T05:51:10.474Z,1.47
2023-12-08T05:53:41.492Z,1.41
2023-12-08T05:56:15.759Z,1.50
2023-12-08T05:58:46.567Z,1.54
2023-12-08T06:01:21.241Z,1.46
2023-12-08T06:03:53.112Z,1.39
2023-12-08T06:06:23.947Z,1.38
2023-12-08T06:08:55.014Z,1.47
2023-12-08T06:11:29.542Z,1.36
2023-12-08T06:14:00.215Z,1.34
2023-12-08T06:16:30.924Z,1.34
2023-12-08T06:19:01.959Z,1.37
2023-12-08T06:21:32.814Z,1.38
2023-12-08T06:24:04.502Z,1.37
2023-12-08T06:26:37.991Z,1.34
2023-12-08T06:29:12.220Z,1.35
2023-12-08T06:31:42.942Z,1.34
2023-12-08T06:34:17.125Z,1.31
2023-12-08T06:36:49.828Z,1.27
2023-12-08T06:39:20.968Z,1.24
2023-12-08T06:41:54.324Z,1.25
2023-12-08T06:44:24.866Z,1.25
2023-12-08T06:46:55.497Z,1.31
2023-12-08T06:49:26.376Z,1.29
2023-12-08T06:51:57.474Z,1.32
2023-12-08T06:54:28.233Z,1.29
2023-12-08T06:57:01.724Z,1.33
2023-12-08T06:59:32.336Z,1.35
2023-12-08T07:02:03.177Z,1.34
2023-12-08T07:04:33.840Z,1.33
2023-12-08T07:07:04.542Z,1.32
2023-12-08T07:09:35.267Z,1.37
2023-12-08T07:12:10.497Z,1.32
2023-12-08T07:14:41.275Z,1.45
2023-12-08T07:17:12.281Z,1.63
2023-12-08T07:19:43.231Z,1.67
2023-12-08T07:22:14.577Z,1.73
2023-12-08T07:24:44.907Z,1.87
2023-12-08T07:27:18.364Z,1.96
2023-12-08T07:29:49.471Z,1.90
2023-12-08T07:32:20.762Z,1.98
2023-12-08T07:34:51.830Z,1.89
2023-12-08T07:37:22.673Z,1.91
2023-12-08T07:39:53.481Z,1.86
2023-12-08T07:42:27.308Z,2.01
2023-12-08T07:44:58.136Z,2.06
2023-12-08T07:47:29.428Z,2.25
2023-12-08T07:50:00.406Z,2.30
2023-12-08T07:52:32.855Z,2.26
2023-12-08T07:55:03.577Z,2.10
2023-12-08T07:57:37.051Z,2.11
2023-12-08T08:00:12.009Z,2.20
2023-12-08T08:02:42.751Z,2.27
2023-12-08T08:05:14.469Z,2.40
2023-12-08T08:07:45.497Z,2.31
2023-12-08T08:10:16.233Z,2.29
2023-12-08T08:12:50.181Z,2.40
2023-12-08T08:15:21.003Z,2.45
2023-12-08T08:17:52.567Z,2.58
2023-12-08T08:20:23.654Z,2.65
2023-12-08T08:22:54.561Z,2.64
2023-12-08T08:25:26.151Z,2.66
2023-12-08T08:28:01.592Z,2.62
2023-12-08T08:30:32.425Z,2.53
2023-12-08T08:33:03.392Z,2.60
2023-12-08T08:35:34.294Z,2.64
2023-12-08T08:38:05.117Z,2.74
2023-12-08T08:40:35.926Z,2.76
2023-12-08T08:43:09.323Z,2.78
2023-12-08T08:45:39.884Z,2.68
2023-12-08T08:48:10.701Z,2.57
2023-12-08T08:50:49.385Z,2.56
2023-12-08T08:53:21.203Z,2.54
2023-12-08T08:55:52.098Z,2.44
2023-12-08T08:58:25.684Z,2.62
2023-12-08T09:00:56.325Z,2.58
2023-12-08T09:03:26.996Z,2.73
2023-12-08T09:05:57.843Z,2.72
2023-12-08T09:08:29.353Z,2.85
2023-12-08T09:11:00.065Z,2.77
2023-12-08T09:13:34.830Z,2.70
2023-12-08T09:16:05.601Z,2.72
2023-12-08T09:18:37.906Z,2.75
2023-12-08T09:21:09.491Z,2.86
2023-12-08T09:23:40.066Z,2.95
2023-12-08T09:26:11.125Z,2.86
2023-12-08T09:28:44.578Z,2.80
2023-12-08T09:31:15.012Z,2.78
2023-12-08T09:33:46.276Z,2.82
2023-12-08T09:36:17.350Z,2.86
2023-12-08T09:38:48.702Z,2.91
2023-12-08T09:41:19.864Z,2.87
2023-12-08T09:44:03.969Z,2.92
2023-12-08T09:46:35.686Z,2.98
2023-12-08T09:49:12.349Z,3.01
2023-12-08T09:51:44.945Z,2.78
2023-12-08T09:54:16.017Z,2.69
2023-12-08T09:56:48.188Z,2.88
2023-12-08T09:59:24.335Z,2.94
2023-12-08T10:01:56.237Z,2.87
2023-12-08T10:04:28.130Z,2.76
2023-12-08T10:07:00.831Z,2.74
2023-12-08T10:09:34.022Z,2.81
2023-12-08T10:12:04.546Z,2.93
2023-12-08T10:14:37.944Z,2.86
2023-12-08T10:17:08.688Z,2.97
2023-12-08T10:19:39.543Z,3.18
2023-12-08T10:22:10.604Z,3.32
2023-12-08T10:24:41.326Z,3.51
2023-12-08T10:27:13.191Z,3.68
2023-12-08T10:29:46.539Z,3.87
2023-12-08T10:32:18.513Z,3.77
2023-12-08T10:34:49.082Z,3.67
2023-12-08T10:37:19.868Z,3.45
2023-12-08T10:39:50.686Z,3.37
2023-12-08T10:42:21.435Z,3.29
2023-12-08T10:44:54.935Z,3.16
2023-12-08T10:47:26.290Z,3.07
2023-12-08T10:49:59.003Z,3.19
2023-12-08T10:52:34.279Z,3.35
2023-12-08T10:55:05.447Z,3.48
2023-12-08T10:57:36.324Z,3.62
2023-12-08T11:00:19.165Z,3.79
2023-12-08T11:02:52.974Z,4.09
2023-12-08T11:05:30.814Z,4.59
2023-12-08T11:08:02.720Z,4.69
2023-12-08T11:10:40.719Z,5.01
2023-12-08T11:13:15.771Z,5.08
2023-12-08T11:16:08.405Z,5.33
2023-12-08T11:18:40.606Z,5.57
2023-12-08T11:21:14.120Z,5.68
2023-12-08T11:23:52.859Z,5.69
2023-12-08T11:26:36.194Z,5.69
2023-12-08T11:29:26.000Z,5.75
2023-12-08T11:32:08.790Z,5.98
2023-12-08T11:34:48.595Z,5.93
2023-12-08T11:37:21.051Z,5.71
2023-12-08T11:39:51.564Z,5.69
2023-12-08T11:42:25.818Z,5.59
2023-12-08T11:44:56.334Z,5.41
2023-12-08T11:47:31.270Z,5.39
2023-12-08T11:50:02.699Z,5.32
2023-12-08T11:52:34.566Z,5.23
2023-12-08T11:55:17.626Z,5.24
2023-12-08T11:58:10.953Z,5.10
2023-12-08T12:00:44.718Z,4.89
2023-12-08T12:03:18.380Z,4.81
2023-12-08T12:05:49.153Z,4.88
2023-12-08T12:08:20.610Z,4.79
2023-12-08T12:10:53.730Z,4.58
2023-12-08T12:13:30.181Z,4.44
2023-12-08T12:16:00.739Z,4.34
2023-12-08T12:18:34.629Z,4.25
2023-12-08T12:21:05.621Z,4.00
2023-12-08T12:23:36.906Z,3.92
2023-12-08T12:26:12.341Z,4.04
2023-12-08T12:28:43.098Z,4.01
2023-12-08T12:31:13.867Z,4.06
2023-12-08T12:33:50.221Z,4.00
2023-12-08T12:36:21.496Z,4.08
2023-12-08T12:38:53.793Z,4.18
2023-12-08T12:41:26.127Z,4.25
2023-12-08T12:44:02.927Z,4.25
2023-12-08T12:46:34.307Z,4.18
2023-12-08T12:49:04.869Z,4.24
2023-12-08T12:51:37.256Z,4.27
2023-12-08T12:54:08.416Z,4.29
2023-12-08T12:56:40.752Z,4.36
2023-12-08T12:59:13.525Z,4.33
2023-12-08T13:01:50.921Z,4.31
2023-12-08T13:04:32.594Z,4.19
2023-12-08T13:07:03.277Z,4.15
2023-12-08T13:09:34.426Z,4.04
2023-12-08T13:12:05.283Z,4.04
2023-12-08T13:14:36.064Z,3.99
2023-12-08T13:17:07.285Z,3.99
2023-12-08T13:19:40.559Z,3.91
2023-12-08T13:22:11.587Z,3.86
2023-12-08T13:24:42.396Z,3.92
2023-12-08T13:27:13.214Z,3.87
2023-12-08T13:29:44.191Z,3.84
2023-12-08T13:32:16.234Z,3.80
2023-12-08T13:34:50.111Z,3.78
2023-12-08T13:37:21.548Z,3.76
2023-12-08T13:39:52.098Z,3.83
2023-12-08T13:42:22.762Z,3.78
2023-12-08T13:44:53.520Z,3.62
2023-12-08T13:47:24.273Z,3.60
2023-12-08T13:49:59.082Z,3.59
2023-12-08T13:52:29.805Z,3.62
2023-12-08T13:55:00.680Z,3.66
2023-12-08T13:57:31.557Z,3.68
2023-12-08T14:00:02.491Z,3.75
2023-12-08T14:02:35.800Z,3.75
2023-12-08T14:05:09.820Z,3.45
2023-12-08T14:07:41.003Z,3.37
2023-12-08T14:10:13.425Z,3.35
2023-12-08T14:12:46.207Z,3.24
2023-12-08T14:15:17.098Z,3.16
2023-12-08T14:17:48.777Z,3.04
2023-12-08T14:20:22.118Z,2.92
2023-12-08T14:22:52.742Z,2.90
2023-12-08T14:25:23.633Z,2.89
2023-12-08T14:27:55.006Z,2.79
2023-12-08T14:30:25.905Z,2.91
2023-12-08T14:32:56.714Z,2.92
2023-12-08T14:35:31.967Z,2.97
2023-12-08T14:38:03.322Z,2.97
2023-12-08T14:40:34.373Z,3.03
2023-12-08T14:43:06.277Z,3.12
2023-12-08T14:45:36.945Z,3.12
2023-12-08T14:48:08.969Z,3.14
2023-12-08T14:50:43.448Z,3.08
2023-12-08T14:53:14.222Z,3.10
2023-12-08T14:55:58.832Z,3.13
2023-12-08T14:58:30.935Z,3.12
2023-12-08T15:01:01.676Z,3.07
2023-12-08T15:03:32.511Z,3.11
2023-12-08T15:06:06.088Z,3.18
2023-12-08T15:08:36.854Z,3.06
2023-12-08T15:11:08.075Z,3.06
2023-12-08T15:13:39.306Z,2.96
2023-12-08T15:16:11.393Z,2.82
2023-12-08T15:18:42.922Z,2.77
2023-12-08T15:21:22.616Z,2.74
2023-12-08T15:23:58.210Z,2.71
2023-12-08T15:26:29.814Z,2.72
2023-12-08T15:29:00.486Z,2.63
2023-12-08T15:31:31.501Z,2.56
2023-12-08T15:34:03.301Z,2.43
2023-12-08T15:36:36.897Z,2.37
2023-12-08T15:39:07.744Z,2.39
2023-12-08T15:41:38.476Z,2.43
2023-12-08T15:44:09.287Z,2.50
2023-12-08T15:46:40.621Z,2.48
2023-12-08T15:49:11.507Z,2.48
2023-12-08T15:51:48.463Z,2.55
2023-12-08T15:54:19.129Z,2.60
2023-12-08T15:56:49.866Z,2.60
2023-12-08T15:59:23.776Z,2.46
2023-12-08T16:02:01.342Z,2.52
2023-12-08T16:04:31.961Z,2.48
2023-12-08T16:07:06.486Z,2.54
2023-12-08T16:09:37.154Z,2.51
2023-12-08T16:12:09.091Z,2.45
2023-12-08T16:14:46.206Z,2.37
2023-12-08T16:17:16.886Z,2.35
2023-12-08T16:19:48.381Z,2.41
2023-12-08T16:22:21.944Z,2.37
2023-12-08T16:24:52.565Z,2.45
2023-12-08T16:27:23.617Z,2.52
2023-12-08T16:29:54.417Z,2.54
2023-12-08T16:32:25.329Z,2.53
2023-12-08T16:34:56.406Z,2.57
2023-12-08T16:37:31.133Z,2.56
2023-12-08T16:40:01.895Z,2.45
2023-12-08T16:42:32.720Z,2.52
2023-12-08T16:45:03.804Z,2.59
2023-12-08T16:47:34.761Z,2.61
2023-12-08T16:50:05.847Z,2.58
2023-12-08T16:52:39.181Z,2.65
2023-12-08T16:55:11.508Z,2.61
2023-12-08T16:57:42.120Z,2.62
2023-12-08T17:00:13.826Z,2.67
2023-12-08T17:02:44.623Z,2.75
2023-12-08T17:05:17.020Z,2.69
2023-12-08T17:07:51.306Z,2.76
2023-12-08T17:10:21.968Z,2.80
2023-12-08T17:12:52.678Z,2.88
2023-12-08T17:15:23.546Z,2.85
2023-12-08T17:18:01.539Z,2.82
2023-12-08T17:20:35.944Z,2.79
2023-12-08T17:23:30.464Z,2.74
2023-12-08T17:26:02.922Z,2.77
2023-12-08T17:28:36.113Z,2.82
2023-12-08T17:31:09.091Z,2.82
2023-12-08T17:33:41.323Z,2.80
2023-12-08T17:36:15.589Z,2.81
2023-12-08T17:38:50.772Z,2.89
2023-12-08T17:41:22.347Z,2.87
2023-12-08T17:43:53.079Z,2.88
2023-12-08T17:46:30.864Z,2.97
2023-12-08T17:49:01.746Z,3.05
2023-12-08T17:51:34.446Z,3.05
2023-12-08T17:54:08.079Z,3.01
2023-12-08T17:56:38.693Z,3.01
2023-12-08T17:59:09.378Z,3.00
2023-12-08T18:01:40.794Z,3.04
2023-12-08T18:04:11.425Z,3.11
2023-12-08T18:06:42.258Z,3.19
2023-12-08T18:09:16.825Z,3.22
2023-12-08T18:11:48.491Z,3.29
2023-12-08T18:14:20.166Z,3.25
2023-12-08T18:16:52.299Z,3.31
2023-12-08T18:19:24.181Z,3.36
2023-12-08T18:21:56.824Z,3.34
2023-12-08T18:24:31.309Z,3.18
2023-12-08T18:27:03.213Z,3.25
2023-12-08T18:29:34.170Z,3.30
2023-12-08T18:32:05.961Z,3.19
2023-12-08T18:34:38.033Z,3.22
2023-12-08T18:37:08.889Z,3.33
2023-12-08T18:39:42.507Z,3.38
2023-12-08T18:42:13.293Z,3.47
2023-12-08T18:44:44.102Z,3.53
2023-12-08T18:47:15.015Z,3.44
2023-12-08T18:49:46.261Z,3.45
2023-12-08T18:52:17.150Z,3.46
2023-12-08T18:54:50.623Z,3.46
2023-12-08T18:57:21.325Z,3.55
2023-12-08T18:59:52.676Z,3.51
2023-12-08T19:02:23.555Z,3.51
2023-12-08T19:04:54.893Z,3.56
2023-12-08T19:07:31.628Z,3.60
2023-12-08T19:10:06.726Z,3.60
2023-12-08T19:12:40.803Z,3.62
2023-12-08T19:15:13.279Z,3.64
2023-12-08T19:17:43.888Z,3.67
2023-12-08T19:20:15.685Z,3.66
2023-12-08T19:22:46.525Z,3.68
2023-12-08T19:25:20.395Z,3.67
2023-12-08T19:27:51.227Z,3.70
2023-12-08T19:30:22.309Z,3.75
2023-12-08T19:32:54.246Z,3.80
2023-12-08T19:35:25.122Z,3.84
2023-12-08T19:37:56.369Z,3.81
2023-12-08T19:40:29.845Z,3.88
2023-12-08T19:43:01.688Z,3.95
2023-12-08T19:45:32.277Z,4.09
2023-12-08T19:48:03.285Z,4.15
2023-12-08T19:50:35.551Z,4.22
2023-12-08T19:53:08.796Z,4.24
2023-12-08T19:55:42.330Z,4.21
2023-12-08T19:58:12.919Z,4.22
2023-12-08T20:00:43.664Z,4.21
2023-12-08T20:03:14.530Z,4.20
2023-12-08T20:05:45.669Z,4.19
2023-12-08T20:08:17.374Z,4.18
2023-12-08T20:10:50.832Z,4.22
2023-12-08T20:13:21.433Z,4.19
2023-12-08T20:15:52.193Z,4.20
2023-12-08T20:18:23.036Z,4.23
2023-12-08T20:20:53.866Z,4.26
2023-12-08T20:23:24.946Z,4.29
2023-12-08T20:25:58.300Z,4.28
2023-12-08T20:28:29.048Z,4.28
2023-12-08T20:31:01.446Z,4.29
2023-12-08T20:33:32.185Z,4.27
2023-12-08T20:36:03.080Z,4.24
2023-12-08T20:38:34.792Z,4.28
2023-12-08T20:41:08.554Z,4.31
2023-12-08T20:43:39.546Z,4.36
2023-12-08T20:46:10.582Z,4.37
2023-12-08T20:48:42.557Z,4.37
2023-12-08T20:51:13.677Z,4.35
2023-12-08T20:53:44.808Z,4.33
2023-12-08T20:56:18.930Z,4.33
2023-12-08T20:58:49.737Z,4.33
2023-12-08T21:01:20.719Z,4.33
2023-12-08T21:03:51.745Z,4.35
2023-12-08T21:06:22.557Z,4.35
2023-12-08T21:08:53.410Z,4.40
2023-12-08T21:11:27.011Z,4.38
2023-12-08T21:13:59.842Z,4.42
2023-12-08T21:16:30.786Z,4.43
2023-12-08T21:19:01.622Z,4.44
2023-12-08T21:21:34.070Z,4.43
2023-12-08T21:24:04.814Z,4.45
2023-12-08T21:26:38.674Z,4.47
2023-12-08T21:29:09.309Z,4.46
2023-12-08T21:31:40.313Z,4.46
2023-12-08T21:34:11.691Z,4.51
2023-12-08T21:36:43.096Z,4.51
2023-12-08T21:39:14.454Z,4.52
2023-12-08T21:41:52.598Z,4.56
2023-12-08T21:44:24.468Z,4.62
2023-12-08T21:46:58.491Z,4.63
2023-12-08T21:49:35.168Z,4.64
2023-12-08T21:52:15.938Z,4.67
2023-12-08T21:54:47.100Z,4.72
2023-12-08T21:57:39.194Z,4.73
2023-12-08T22:00:12.732Z,4.67
2023-12-08T22:02:44.780Z,4.67
2023-12-08T22:05:15.646Z,4.67
2023-12-08T22:07:46.323Z,4.74
2023-12-08T22:10:17.026Z,4.81
2023-12-08T22:12:50.514Z,4.82
2023-12-08T22:15:21.951Z,4.80
2023-12-08T22:17:52.915Z,4.79
2023-12-08T22:20:23.705Z,4.79
2023-12-08T22:22:54.458Z,4.75
2023-12-08T22:25:25.321Z,4.73
2023-12-08T22:27:58.852Z,4.71
2023-12-08T22:30:29.499Z,4.76
2023-12-08T22:33:00.424Z,4.81
2023-12-08T22:35:31.195Z,4.84
2023-12-08T22:38:01.999Z,4.85
2023-12-08T22:40:32.789Z,4.88
2023-12-08T22:43:06.122Z,4.86
2023-12-08T22:45:34.304Z,4.94
2023-12-08T22:48:05.473Z,4.97
2023-12-08T22:50:43.624Z,4.89
2023-12-08T22:53:20.107Z,4.81
2023-12-08T22:55:50.992Z,4.82
2023-12-08T22:58:24.546Z,4.78
2023-12-08T23:00:55.208Z,4.77
2023-12-08T23:03:25.950Z,4.80
2023-12-08T23:05:56.581Z,4.83
2023-12-08T23:08:27.208Z,4.83
2023-12-08T23:10:57.844Z,4.84
2023-12-08T23:13:31.152Z,4.77
2023-12-08T23:16:01.840Z,4.79
2023-12-08T23:18:32.839Z,4.76
2023-12-08T23:21:03.835Z,4.78
2023-12-08T23:23:34.413Z,4.87
2023-12-08T23:26:05.174Z,4.90
2023-12-08T23:28:38.428Z,4.91
2023-12-08T23:31:10.070Z,4.85
2023-12-08T23:33:41.461Z,4.87
2023-12-08T23:36:13.449Z,4.84
2023-12-08T23:38:44.181Z,4.87
2023-12-08T23:41:14.886Z,4.83
2023-12-08T23:43:50.350Z,4.81
2023-12-08T23:46:21.850Z,4.91
2023-12-08T23:48:54.209Z,5.02
2023-12-08T23:51:24.965Z,5.00
2023-12-08T23:53:55.857Z,5.03
2023-12-08T23:56:27.048Z,5.03
2023-12-08T23:59:00.710Z,5.03
